Time;durP1;ratioP1;P1;durP2;ratioP2;P2;SDS_P1;SDS_P2;PMS_P1;PMS_P2;Temp;Humidity;BMP_temperature;BMP_pressure;BME280_temperature;BME280_humidity;BME280_pressure;Samples;Min_cycle;Max_cycle;Signal;HPM_P1;HPM_P2
2022/01/30 00:00:05;;;;;;;24.90;15.25;;;;;;;;;;5071636;28;20013;-80
2022/01/30 00:02:31;;;;;;;24.98;14.00;;;;;;;;;;5072034;28;20033;-80
2022/01/30 00:04:58;;;;;;;24.40;14.55;;;;;;;;;;5072802;28;20505;-80
2022/01/30 00:07:24;;;;;;;29.23;15.82;;;;;;;;;;5072565;28;20029;-80
2022/01/30 00:09:51;;;;;;;27.55;15.32;;;;;;;;;;5071752;28;20029;-80
2022/01/30 00:12:24;;;;;;;24.88;13.90;;;;;;;;;;5071469;28;20024;-80
2022/01/30 00:14:54;;;;;;;29.45;15.98;;;;;;;;;;5071579;28;20521;-80
2022/01/30 00:17:26;;;;;;;30.60;15.75;;;;;;;;;;5055970;28;20034;-80
2022/01/30 00:20:03;;;;;;;21.67;14.15;;;;;;;;;;5074524;28;20028;-80
2022/01/30 00:25:03;;;;;;;24.67;14.65;;;;;;;;;;5071326;28;20024;-80
2022/01/30 00:27:45;;;;;;;25.30;14.88;;;;;;;;;;5071037;28;20051;-80
2022/01/30 00:30:14;;;;;;;22.08;13.45;;;;;;;;;;5070553;28;20043;-80
2022/01/30 00:32:41;;;;;;;23.33;13.85;;;;;;;;;;5070548;28;20501;-80
2022/01/30 00:35:09;;;;;;;22.40;12.95;;;;;;;;;;5072258;28;20440;-80
2022/01/30 00:37:41;;;;;;;20.55;12.38;;;;;;;;;;5074680;28;20012;-80
2022/01/30 00:40:08;;;;;;;22.33;12.73;;;;;;;;;;5070889;28;20024;-80
2022/01/30 00:42:34;;;;;;;20.20;11.55;;;;;;;;;;5071089;28;20032;-80
2022/01/30 00:45:01;;;;;;;21.65;13.13;;;;;;;;;;5070842;28;20372;-80
2022/01/30 00:47:27;;;;;;;20.20;12.07;;;;;;;;;;5071323;28;20029;-80
2022/01/30 00:49:54;;;;;;;18.60;11.65;;;;;;;;;;5073515;28;20509;-80
2022/01/30 00:52:20;;;;;;;22.08;11.90;;;;;;;;;;5071602;28;20028;-80
2022/01/30 00:54:46;;;;;;;18.33;11.45;;;;;;;;;;5069519;28;20020;-80
2022/01/30 00:57:13;;;;;;;18.63;11.68;;;;;;;;;;5070622;28;20024;-80
2022/01/30 00:59:39;;;;;;;23.65;13.45;;;;;;;;;;5070667;28;20480;-80
2022/01/30 01:02:05;;;;;;;22.13;12.50;;;;;;;;;;5073062;28;20035;-80
2022/01/30 01:04:32;;;;;;;24.63;14.00;;;;;;;;;;5071729;28;20081;-80
2022/01/30 01:06:58;;;;;;;23.73;14.88;;;;;;;;;;5070578;28;20460;-80
2022/01/30 01:09:32;;;;;;;24.42;14.90;;;;;;;;;;5070377;28;20029;-80
2022/01/30 01:25:35;;;;;;;23.77;13.90;;;;;;;;;;5071681;28;20016;-80
2022/01/30 01:28:01;;;;;;;30.73;15.40;;;;;;;;;;5056418;28;20048;-80
2022/01/30 01:30:27;;;;;;;24.67;13.68;;;;;;;;;;5070025;28;20505;-80
2022/01/30 01:32:54;;;;;;;30.65;14.75;;;;;;;;;;5069871;28;20025;-80
2022/01/30 01:35:20;;;;;;;24.83;13.45;;;;;;;;;;5070637;28;20017;-80
2022/01/30 01:37:52;;;;;;;24.60;13.68;;;;;;;;;;5073545;28;20078;-80
2022/01/30 01:40:18;;;;;;;22.58;13.60;;;;;;;;;;5071847;28;20031;-80
2022/01/30 01:42:45;;;;;;;27.17;13.55;;;;;;;;;;5069392;28;20023;-80
2022/01/30 01:45:17;;;;;;;21.80;12.18;;;;;;;;;;5068520;28;20505;-80
2022/01/30 01:47:44;;;;;;;24.88;13.18;;;;;;;;;;5069559;28;20032;-80
2022/01/30 01:50:17;;;;;;;22.70;12.80;;;;;;;;;;5071172;28;20019;-80
2022/01/30 01:52:43;;;;;;;23.77;12.93;;;;;;;;;;5072721;28;20035;-80
2022/01/30 01:55:09;;;;;;;24.35;12.38;;;;;;;;;;5070929;28;20393;-80
2022/01/30 01:57:36;;;;;;;20.13;12.15;;;;;;;;;;5069513;28;20398;-80
2022/01/30 02:00:04;;;;;;;21.17;12.88;;;;;;;;;;5069487;28;20024;-80
2022/01/30 02:02:31;;;;;;;21.67;12.85;;;;;;;;;;5068984;28;20024;-80
2022/01/30 02:05:01;;;;;;;25.52;13.18;;;;;;;;;;5072100;28;20025;-80
2022/01/30 02:08:07;;;;;;;22.47;12.87;;;;;;;;;;5070443;28;20069;-80
2022/01/30 02:13:42;;;;;;;20.73;12.35;;;;;;;;;;5069326;28;20032;-80
2022/01/30 02:24:24;;;;;;;21.25;12.73;;;;;;;;;;5069200;28;20483;-80
2022/01/30 02:26:51;;;;;;;23.52;12.55;;;;;;;;;;5069128;28;20070;-80
2022/01/30 02:29:19;;;;;;;20.55;11.73;;;;;;;;;;5069603;28;20402;-80
2022/01/30 02:31:45;;;;;;;21.88;11.65;;;;;;;;;;5072143;28;20027;-80
2022/01/30 02:34:13;;;;;;;20.80;12.20;;;;;;;;;;5070239;28;20055;-80
2022/01/30 02:36:49;;;;;;;20.92;11.68;;;;;;;;;;5069278;28;20475;-80
2022/01/30 02:39:16;;;;;;;18.60;11.10;;;;;;;;;;5068845;28;20372;-80
2022/01/30 02:41:42;;;;;;;18.30;11.23;;;;;;;;;;5068847;28;20446;-80
2022/01/30 02:46:40;;;;;;;17.27;10.68;;;;;;;;;;5070302;28;20021;-80
2022/01/30 02:51:53;;;;;;;20.00;10.93;;;;;;;;;;5068801;28;20061;-80
2022/01/30 02:54:19;;;;;;;20.52;12.02;;;;;;;;;;5067822;28;20016;-80
2022/01/30 02:56:46;;;;;;;18.95;10.73;;;;;;;;;;5068805;28;20025;-80
2022/01/30 02:59:12;;;;;;;17.70;10.38;;;;;;;;;;5070524;28;20016;-80
2022/01/30 03:01:39;;;;;;;20.52;11.27;;;;;;;;;;5070938;28;20082;-80
2022/01/30 03:04:07;;;;;;;20.92;11.27;;;;;;;;;;5070253;28;20483;-80
2022/01/30 03:06:33;;;;;;;19.70;10.43;;;;;;;;;;5068777;28;20032;-80
2022/01/30 03:09:01;;;;;;;20.02;11.70;;;;;;;;;;5068652;28;20090;-80
2022/01/30 03:11:28;;;;;;;19.10;11.23;;;;;;;;;;5069998;28;20020;-80
2022/01/30 03:13:54;;;;;;;20.63;10.98;;;;;;;;;;5071392;28;20029;-80
2022/01/30 03:16:21;;;;;;;17.88;10.70;;;;;;;;;;5069037;28;20517;-80
2022/01/30 03:18:47;;;;;;;16.38;10.23;;;;;;;;;;5068567;28;20482;-80
2022/01/30 03:21:14;;;;;;;19.80;11.05;;;;;;;;;;5068433;28;20027;-80
2022/01/30 03:23:41;;;;;;;21.17;11.88;;;;;;;;;;5068480;28;20033;-80
2022/01/30 03:26:09;;;;;;;20.67;11.27;;;;;;;;;;5070338;28;20069;-80
2022/01/30 03:28:38;;;;;;;18.80;10.93;;;;;;;;;;5070195;28;20051;-80
2022/01/30 03:31:07;;;;;;;20.30;10.90;;;;;;;;;;5067084;28;20029;-80
2022/01/30 03:33:34;;;;;;;19.98;10.57;;;;;;;;;;5068383;28;20021;-80
2022/01/30 03:36:01;;;;;;;18.17;10.77;;;;;;;;;;5067255;28;20471;-80
2022/01/30 03:38:27;;;;;;;20.85;11.68;;;;;;;;;;5068269;28;20035;-80
2022/01/30 03:40:54;;;;;;;20.02;11.13;;;;;;;;;;5071279;28;20027;-80
2022/01/30 03:43:21;;;;;;;21.02;11.00;;;;;;;;;;5068774;28;20402;-80
2022/01/30 03:45:47;;;;;;;31.77;12.48;;;;;;;;;;5068308;28;20035;-80
2022/01/30 03:48:14;;;;;;;22.52;11.93;;;;;;;;;;5068158;28;20035;-80
2022/01/30 03:50:44;;;;;;;32.65;12.32;;;;;;;;;;5069696;28;20487;-80
2022/01/30 03:53:11;;;;;;;22.65;11.98;;;;;;;;;;5069778;28;20070;-80
2022/01/30 03:55:38;;;;;;;29.13;13.52;;;;;;;;;;5070377;28;20023;-80
2022/01/30 03:58:05;;;;;;;30.23;11.85;;;;;;;;;;5068086;28;20028;-80
2022/01/30 04:00:32;;;;;;;24.00;12.48;;;;;;;;;;5068021;28;20064;-80
2022/01/30 04:02:58;;;;;;;26.38;12.15;;;;;;;;;;5067928;28;20032;-80
2022/01/30 04:05:24;;;;;;;24.38;12.60;;;;;;;;;;5069414;28;20027;-80
2022/01/30 04:07:51;;;;;;;20.88;11.18;;;;;;;;;;5074964;28;20490;-80
2022/01/30 04:10:17;;;;;;;35.13;12.85;;;;;;;;;;5073431;28;20406;-80
2022/01/30 04:12:44;;;;;;;35.50;13.10;;;;;;;;;;5071250;28;20020;-80
2022/01/30 04:15:10;;;;;;;30.30;12.82;;;;;;;;;;5071662;28;20021;-80
2022/01/30 04:17:37;;;;;;;26.23;12.98;;;;;;;;;;5071577;28;20017;-80
2022/01/30 04:20:03;;;;;;;24.27;12.65;;;;;;;;;;5073807;28;20027;-80
2022/01/30 04:22:30;;;;;;;21.90;11.30;;;;;;;;;;5072350;28;20043;-80
2022/01/30 04:24:56;;;;;;;24.90;11.10;;;;;;;;;;5071257;28;20398;-80
2022/01/30 04:27:22;;;;;;;18.25;10.00;;;;;;;;;;5070887;28;20021;-80
2022/01/30 04:29:49;;;;;;;15.65;9.65;;;;;;;;;;5072649;28;20037;-80
2022/01/30 04:32:16;;;;;;;19.80;10.82;;;;;;;;;;5071967;28;20506;-80
2022/01/30 04:34:44;;;;;;;19.55;10.70;;;;;;;;;;5073917;28;20024;-80
2022/01/30 04:37:22;;;;;;;19.58;11.30;;;;;;;;;;5071349;28;20016;-80
2022/01/30 04:59:04;;;;;;;20.88;12.35;;;;;;;;;;5073340;28;20029;-80
2022/01/30 05:04:21;;;;;;;22.20;12.20;;;;;;;;;;5070453;28;20028;-80
2022/01/30 05:07:26;;;;;;;20.92;11.40;;;;;;;;;;5070567;28;20089;-80
2022/01/30 05:09:39;;;;;;;22.58;12.35;;;;;;;;;;5071814;28;20017;-79
2022/01/30 05:12:06;;;;;;;24.85;12.60;;;;;;;;;;5070153;28;20562;-79
2022/01/30 05:14:35;;;;;;;26.88;14.48;;;;;;;;;;5070730;28;20013;-80
2022/01/30 05:17:03;;;;;;;28.73;14.07;;;;;;;;;;5072042;28;20039;-79
2022/01/30 05:19:29;;;;;;;25.42;13.38;;;;;;;;;;5071390;28;20032;-80
2022/01/30 05:21:56;;;;;;;36.38;14.05;;;;;;;;;;5070189;28;20475;-79
2022/01/30 05:24:23;;;;;;;28.52;14.18;;;;;;;;;;5070545;28;20017;-80
2022/01/30 05:26:50;;;;;;;31.77;12.85;;;;;;;;;;5070049;28;20028;-80
2022/01/30 05:29:16;;;;;;;32.70;13.80;;;;;;;;;;5070763;28;20519;-80
2022/01/30 05:31:43;;;;;;;25.45;12.95;;;;;;;;;;5072903;28;20036;-80
2022/01/30 05:34:11;;;;;;;26.50;14.02;;;;;;;;;;5069954;28;20035;-80
2022/01/30 05:36:38;;;;;;;24.10;14.23;;;;;;;;;;5070285;28;20031;-80
2022/01/30 05:39:05;;;;;;;33.63;13.73;;;;;;;;;;5069892;28;20023;-80
2022/01/30 05:41:32;;;;;;;33.08;12.65;;;;;;;;;;5069754;28;20427;-80
2022/01/30 05:44:07;;;;;;;43.65;13.00;;;;;;;;;;5072237;28;20040;-80
2022/01/30 05:46:41;;;;;;;35.08;14.02;;;;;;;;;;5071464;28;20510;-80
2022/01/30 05:49:07;;;;;;;35.92;12.10;;;;;;;;;;5071076;28;20390;-80
2022/01/30 05:51:34;;;;;;;49.38;13.95;;;;;;;;;;5069580;28;20432;-80
2022/01/30 05:54:00;;;;;;;44.70;13.93;;;;;;;;;;5069437;28;20016;-80
2022/01/30 05:56:26;;;;;;;29.42;13.43;;;;;;;;;;5069778;28;20028;-80
2022/01/30 05:58:53;;;;;;;32.20;13.13;;;;;;;;;;5072593;28;20021;-80
2022/01/30 06:01:22;;;;;;;30.00;13.00;;;;;;;;;;5070436;28;20028;-80
2022/01/30 06:03:48;;;;;;;36.08;13.45;;;;;;;;;;5069372;28;20025;-80
2022/01/30 06:06:14;;;;;;;34.50;11.63;;;;;;;;;;5069552;28;20025;-80
2022/01/30 06:08:45;;;;;;;31.77;12.60;;;;;;;;;;5069085;28;20403;-80
2022/01/30 06:11:12;;;;;;;45.80;13.48;;;;;;;;;;5070936;28;20021;-80
2022/01/30 06:13:38;;;;;;;37.40;12.48;;;;;;;;;;5071415;28;20032;-80
2022/01/30 06:16:05;;;;;;;38.00;12.88;;;;;;;;;;5069218;28;20017;-80
2022/01/30 06:18:31;;;;;;;30.48;14.30;;;;;;;;;;5067859;28;20028;-80
2022/01/30 06:20:57;;;;;;;31.60;14.43;;;;;;;;;;5069205;28;20025;-80
2022/01/30 06:23:27;;;;;;;27.30;13.15;;;;;;;;;;5068831;28;20059;-80
2022/01/30 06:25:54;;;;;;;31.80;13.70;;;;;;;;;;5072140;28;20073;-80
2022/01/30 06:28:21;;;;;;;35.80;13.60;;;;;;;;;;5070760;28;20044;-80
2022/01/30 06:30:47;;;;;;;32.35;12.35;;;;;;;;;;5068981;28;20012;-80
2022/01/30 06:33:13;;;;;;;34.13;12.05;;;;;;;;;;5069055;28;20032;-80
2022/01/30 06:35:40;;;;;;;36.63;13.07;;;;;;;;;;5069077;28;20021;-80
2022/01/30 06:38:06;;;;;;;22.02;11.50;;;;;;;;;;5070700;28;20025;-80
2022/01/30 06:40:33;;;;;;;33.97;12.88;;;;;;;;;;5070306;28;20387;-80
2022/01/30 06:42:59;;;;;;;27.98;13.30;;;;;;;;;;5067602;28;20044;-80
2022/01/30 06:45:26;;;;;;;28.42;14.25;;;;;;;;;;5068841;28;20026;-80
2022/01/30 06:47:53;;;;;;;34.25;14.02;;;;;;;;;;5068892;28;20393;-80
2022/01/30 06:50:19;;;;;;;33.22;14.38;;;;;;;;;;5051948;28;20025;-80
2022/01/30 06:52:46;;;;;;;35.05;14.50;;;;;;;;;;5071602;28;20032;-80
2022/01/30 06:55:12;;;;;;;31.80;13.95;;;;;;;;;;5068862;28;20020;-80
2022/01/30 06:57:43;;;;;;;33.28;12.20;;;;;;;;;;5068608;28;20379;-80
2022/01/30 07:00:09;;;;;;;35.72;11.40;;;;;;;;;;5069007;28;20027;-80
2022/01/30 07:02:36;;;;;;;28.30;13.00;;;;;;;;;;5068815;28;20032;-80
2022/01/30 07:05:02;;;;;;;26.85;13.98;;;;;;;;;;5070720;28;20020;-80
2022/01/30 07:07:29;;;;;;;26.58;13.90;;;;;;;;;;5071383;28;20035;-80
2022/01/30 07:09:56;;;;;;;31.25;16.00;;;;;;;;;;5067454;28;20478;-80
2022/01/30 07:12:22;;;;;;;26.98;15.25;;;;;;;;;;5068750;28;20033;-80
2022/01/30 07:14:48;;;;;;;34.05;15.20;;;;;;;;;;5068616;28;20421;-80
2022/01/30 07:17:15;;;;;;;26.00;13.73;;;;;;;;;;5069632;28;20495;-80
2022/01/30 07:19:41;;;;;;;30.42;14.98;;;;;;;;;;5070986;28;20029;-80
2022/01/30 07:22:08;;;;;;;32.53;14.65;;;;;;;;;;5067984;28;20027;-80
2022/01/30 07:24:34;;;;;;;31.42;13.15;;;;;;;;;;5068447;28;20386;-80
2022/01/30 07:27:00;;;;;;;35.95;12.73;;;;;;;;;;5068434;28;20024;-80
2022/01/30 07:29:27;;;;;;;22.80;12.75;;;;;;;;;;5067081;28;20045;-80
2022/01/30 07:31:53;;;;;;;34.45;15.05;;;;;;;;;;5070527;28;20036;-80
2022/01/30 07:34:21;;;;;;;30.20;14.82;;;;;;;;;;5068900;28;20121;-80
2022/01/30 07:36:48;;;;;;;28.58;15.30;;;;;;;;;;5068329;28;20028;-80
2022/01/30 07:39:17;;;;;;;27.67;15.43;;;;;;;;;;5068531;28;20020;-80
2022/01/30 07:41:44;;;;;;;30.42;14.40;;;;;;;;;;5071523;28;20020;-80
2022/01/30 07:44:10;;;;;;;28.60;14.55;;;;;;;;;;5072320;28;20044;-80
2022/01/30 07:46:37;;;;;;;28.45;15.43;;;;;;;;;;5075465;28;20020;-80
2022/01/30 07:49:03;;;;;;;28.48;15.38;;;;;;;;;;5071872;28;20020;-80
2022/01/30 07:51:30;;;;;;;32.72;14.77;;;;;;;;;;5071653;28;20029;-80
2022/01/30 07:53:56;;;;;;;26.60;14.27;;;;;;;;;;5072321;28;20024;-80
2022/01/30 07:56:23;;;;;;;25.80;13.43;;;;;;;;;;5072029;28;20033;-80
2022/01/30 07:58:50;;;;;;;35.13;12.30;;;;;;;;;;5075095;28;20016;-80
2022/01/30 08:01:16;;;;;;;27.80;13.55;;;;;;;;;;5071803;28;20036;-80
2022/01/30 08:03:42;;;;;;;27.05;12.95;;;;;;;;;;5071610;28;20035;-80
2022/01/30 08:06:08;;;;;;;23.05;12.73;;;;;;;;;;5071386;28;20008;-80
2022/01/30 08:08:35;;;;;;;29.20;12.45;;;;;;;;;;5072062;28;20024;-80
2022/01/30 08:11:01;;;;;;;27.77;13.07;;;;;;;;;;5073945;28;20021;-80
2022/01/30 08:13:28;;;;;;;22.83;12.63;;;;;;;;;;5072548;28;20043;-80
2022/01/30 08:15:54;;;;;;;30.42;14.25;;;;;;;;;;5071440;28;20016;-80
2022/01/30 08:18:20;;;;;;;27.42;14.73;;;;;;;;;;5070231;28;20491;-80
2022/01/30 08:20:47;;;;;;;24.35;12.57;;;;;;;;;;5071225;28;20024;-80
2022/01/30 08:23:16;;;;;;;35.53;13.57;;;;;;;;;;5071667;28;20508;-80
2022/01/30 08:25:42;;;;;;;37.58;12.50;;;;;;;;;;5075164;28;20033;-80
2022/01/30 08:28:09;;;;;;;39.03;13.38;;;;;;;;;;5071012;28;20032;-80
2022/01/30 08:30:35;;;;;;;32.60;13.60;;;;;;;;;;5071465;28;20026;-80
2022/01/30 08:33:02;;;;;;;27.27;13.88;;;;;;;;;;5071223;28;20030;-80
2022/01/30 08:35:29;;;;;;;15.25;9.52;;;;;;;;;;5070910;28;20013;-80
2022/01/30 08:37:56;;;;;;;18.92;10.73;;;;;;;;;;5074187;28;20382;-80
2022/01/30 08:40:23;;;;;;;24.33;14.00;;;;;;;;;;5071878;28;20035;-80
2022/01/30 08:42:50;;;;;;;24.52;12.13;;;;;;;;;;5071060;28;20029;-80
2022/01/30 08:45:17;;;;;;;19.80;11.57;;;;;;;;;;5070923;28;20025;-80
2022/01/30 08:47:46;;;;;;;23.98;13.32;;;;;;;;;;5070574;28;20021;-80
2022/01/30 08:50:13;;;;;;;27.25;11.52;;;;;;;;;;5071197;28;20035;-80
2022/01/30 08:52:40;;;;;;;28.15;12.60;;;;;;;;;;5072178;28;20030;-80
2022/01/30 08:55:08;;;;;;;20.73;11.15;;;;;;;;;;5070913;28;20025;-80
2022/01/30 08:57:34;;;;;;;29.73;11.55;;;;;;;;;;5070648;28;20077;-80
2022/01/30 09:00:01;;;;;;;19.92;10.85;;;;;;;;;;5070733;28;20029;-80
2022/01/30 09:02:27;;;;;;;24.15;10.27;;;;;;;;;;5072051;28;20035;-80
2022/01/30 09:04:53;;;;;;;18.52;10.25;;;;;;;;;;5073734;28;20028;-80
2022/01/30 09:07:20;;;;;;;20.80;10.65;;;;;;;;;;5071084;28;20045;-80
2022/01/30 09:09:46;;;;;;;18.52;9.88;;;;;;;;;;5070889;28;20032;-80
2022/01/30 09:12:13;;;;;;;32.10;15.55;;;;;;;;;;5070253;28;20520;-80
2022/01/30 09:14:41;;;;;;;24.00;12.35;;;;;;;;;;5070381;28;20483;-80
2022/01/30 09:17:15;;;;;;;36.22;11.50;;;;;;;;;;5072090;28;20474;-80
2022/01/30 09:19:42;;;;;;;33.47;11.07;;;;;;;;;;5073199;28;20028;-80
2022/01/30 09:22:14;;;;;;;25.20;9.93;;;;;;;;;;5070421;28;20012;-80
2022/01/30 09:24:40;;;;;;;;;;;;;;;;;;5070674;28;20039;-80
2022/01/30 09:27:07;;;;;;;20.77;9.70;;;;;;;;;;5070429;28;19931;-80
2022/01/30 09:29:34;;;;;;;22.67;10.63;;;;;;;;;;5069931;28;20377;-80
2022/01/30 09:32:01;;;;;;;27.25;10.57;;;;;;;;;;5072406;28;20035;-80
2022/01/30 09:34:27;;;;;;;37.55;10.80;;;;;;;;;;5069972;28;20039;-80
2022/01/30 09:36:54;;;;;;;17.70;11.00;;;;;;;;;;5069785;28;20028;-80
2022/01/30 09:39:20;;;;;;;24.70;10.10;;;;;;;;;;5069884;28;20031;-80
2022/01/30 09:41:49;;;;;;;15.95;8.35;;;;;;;;;;5071365;28;20535;-80
2022/01/30 09:44:16;;;;;;;18.90;10.05;;;;;;;;;;5070694;28;20037;-80
2022/01/30 09:46:43;;;;;;;26.80;9.75;;;;;;;;;;5072206;28;20409;-80
2022/01/30 09:49:10;;;;;;;23.25;9.02;;;;;;;;;;5070069;28;20029;-80
2022/01/30 09:51:37;;;;;;;15.38;8.93;;;;;;;;;;5069863;28;20020;-80
2022/01/30 09:54:04;;;;;;;26.73;10.90;;;;;;;;;;5069643;28;20013;-80
2022/01/30 09:56:30;;;;;;;17.85;10.90;;;;;;;;;;5069969;28;20021;-80
2022/01/30 09:58:57;;;;;;;24.83;9.80;;;;;;;;;;5072223;28;20021;-80
2022/01/30 10:01:29;;;;;;;20.00;10.20;;;;;;;;;;5070050;28;20029;-80
2022/01/30 10:03:56;;;;;;;20.42;11.57;;;;;;;;;;5069023;28;20039;-80
2022/01/30 10:06:25;;;;;;;18.65;10.07;;;;;;;;;;5069337;28;20029;-80
2022/01/30 10:08:56;;;;;;;22.83;10.38;;;;;;;;;;5069430;28;20009;-80
2022/01/30 10:14:20;;;;;;;16.58;9.18;;;;;;;;;;5072473;28;20491;-79
2022/01/30 10:16:48;;;;;;;10.05;6.43;;;;;;;;;;5069335;28;20472;-80
2022/01/30 10:19:19;;;;;;;10.45;6.43;;;;;;;;;;5069204;28;20019;-80
2022/01/30 10:21:49;;;;;;;13.32;7.65;;;;;;;;;;5070578;28;20028;-80
2022/01/30 10:24:22;;;;;;;12.85;8.20;;;;;;;;;;5068908;28;20028;-80
2022/01/30 10:26:49;;;;;;;14.10;7.15;;;;;;;;;;5069269;28;20020;-80
2022/01/30 10:29:26;;;;;;;15.63;8.63;;;;;;;;;;5069553;28;20411;-80
2022/01/30 10:32:03;;;;;;;13.82;8.88;;;;;;;;;;5068837;28;20035;-80
2022/01/30 10:34:30;;;;;;;13.40;8.32;;;;;;;;;;5071954;28;20028;-80
2022/01/30 10:37:12;;;;;;;11.98;8.00;;;;;;;;;;5068871;28;20060;-80
2022/01/30 10:39:57;;;;;;;14.30;8.68;;;;;;;;;;5068866;28;20020;-80
2022/01/30 10:42:34;;;;;;;15.98;9.23;;;;;;;;;;5068910;28;20028;-80
2022/01/30 10:45:01;;;;;;;11.68;7.65;;;;;;;;;;5068409;28;20486;-80
2022/01/30 10:47:30;;;;;;;14.80;8.70;;;;;;;;;;5069057;28;20517;-80
2022/01/30 10:49:57;;;;;;;12.63;8.18;;;;;;;;;;5071788;28;20034;-80
2022/01/30 10:52:24;;;;;;;11.10;7.75;;;;;;;;;;5069754;28;20032;-80
2022/01/30 10:54:50;;;;;;;11.50;7.45;;;;;;;;;;5068803;28;20479;-80
2022/01/30 10:57:17;;;;;;;10.07;7.10;;;;;;;;;;5068675;28;20031;-80
2022/01/30 10:59:53;;;;;;;12.18;7.55;;;;;;;;;;5069928;28;21288;-80
2022/01/30 11:02:22;;;;;;;10.73;7.30;;;;;;;;;;5068982;28;20401;-80
2022/01/30 11:04:49;;;;;;;12.05;7.63;;;;;;;;;;5067780;28;20028;-80
2022/01/30 11:07:27;;;;;;;10.25;7.07;;;;;;;;;;5068945;28;20504;-80
2022/01/30 11:10:02;;;;;;;10.88;7.50;;;;;;;;;;5068662;28;20032;-80
2022/01/30 11:12:40;;;;;;;10.18;7.40;;;;;;;;;;5067751;28;20035;-80
2022/01/30 11:15:34;;;;;;;11.02;7.15;;;;;;;;;;5069093;28;20024;-80
2022/01/30 11:18:02;;;;;;;9.30;6.22;;;;;;;;;;5072560;28;20021;-80
2022/01/30 11:20:31;;;;;;;7.95;5.93;;;;;;;;;;5072749;28;20395;-80
2022/01/30 11:22:59;;;;;;;10.18;5.85;;;;;;;;;;5075040;28;20028;-80
2022/01/30 11:25:33;;;;;;;10.75;6.70;;;;;;;;;;5074939;28;20024;-80
2022/01/30 11:28:03;;;;;;;7.63;6.10;;;;;;;;;;5071885;28;20027;-80
2022/01/30 11:30:31;;;;;;;8.43;5.90;;;;;;;;;;5072541;28;20024;-80
2022/01/30 11:32:58;;;;;;;9.05;6.45;;;;;;;;;;5072379;28;20027;-80
2022/01/30 11:35:24;;;;;;;9.68;6.45;;;;;;;;;;5072648;28;20031;-79
2022/01/30 11:37:51;;;;;;;11.32;7.38;;;;;;;;;;5075647;28;20479;-79
2022/01/30 11:40:18;;;;;;;7.82;6.00;;;;;;;;;;5071316;28;20028;-80
2022/01/30 11:42:49;;;;;;;11.82;7.82;;;;;;;;;;5071706;28;20043;-79
2022/01/30 11:45:16;;;;;;;10.57;6.82;;;;;;;;;;5072247;28;20394;-80
2022/01/30 11:47:51;;;;;;;11.13;6.57;;;;;;;;;;5072356;28;20032;-80
2022/01/30 11:50:19;;;;;;;10.23;6.75;;;;;;;;;;5073140;28;20013;-80
2022/01/30 11:52:50;;;;;;;9.40;6.20;;;;;;;;;;5075064;28;20502;-80
2022/01/30 11:55:16;;;;;;;;;;;;;;;;;;5072369;28;20424;-79
2022/01/30 11:57:43;;;;;;;13.60;8.75;;;;;;;;;;5071488;28;19915;-80
2022/01/30 12:00:29;;;;;;;10.57;7.53;;;;;;;;;;5071820;28;20027;-79
2022/01/30 12:03:15;;;;;;;28.35;13.77;;;;;;;;;;5071756;28;20037;-80
2022/01/30 12:05:42;;;;;;;14.07;8.15;;;;;;;;;;5071524;28;20054;-79
2022/01/30 12:08:28;;;;;;;10.48;6.68;;;;;;;;;;5073602;28;20501;-80
2022/01/30 12:10:54;;;;;;;10.85;7.00;;;;;;;;;;5086672;28;20036;-80
2022/01/30 12:13:41;;;;;;;14.18;9.35;;;;;;;;;;5072376;28;20025;-80
2022/01/30 12:16:07;;;;;;;15.95;9.75;;;;;;;;;;5071632;28;20069;-79
2022/01/30 12:18:44;;;;;;;13.57;8.55;;;;;;;;;;5071559;28;20024;-79
2022/01/30 12:21:11;;;;;;;11.65;8.27;;;;;;;;;;5049152;28;20035;-79
2022/01/30 12:23:39;;;;;;;12.48;8.98;;;;;;;;;;5071711;28;20483;-80
2022/01/30 12:26:15;;;;;;;13.13;8.50;;;;;;;;;;5073224;28;20110;-79
2022/01/30 12:28:44;;;;;;;10.85;7.45;;;;;;;;;;5073601;28;20047;-79
2022/01/30 12:31:32;;;;;;;12.30;7.93;;;;;;;;;;5071424;28;20025;-79
2022/01/30 12:34:01;;;;;;;10.40;7.68;;;;;;;;;;5071355;28;20023;-79
2022/01/30 12:36:27;;;;;;;8.40;6.05;;;;;;;;;;5071369;28;20020;-79
2022/01/30 12:38:55;;;;;;;9.45;6.32;;;;;;;;;;5071463;28;20013;-80
2022/01/30 12:41:22;;;;;;;7.43;5.95;;;;;;;;;;5055500;28;20095;-79
2022/01/30 12:43:56;;;;;;;7.45;5.85;;;;;;;;;;5070235;28;20047;-79
2022/01/30 12:46:24;;;;;;;9.20;6.55;;;;;;;;;;5071757;28;20031;-79
2022/01/30 12:49:09;;;;;;;7.03;5.22;;;;;;;;;;5069670;28;20089;-79
2022/01/30 12:51:37;;;;;;;7.55;5.93;;;;;;;;;;5070869;28;20019;-78
2022/01/30 12:54:03;;;;;;;7.80;5.20;;;;;;;;;;5070770;28;20009;-79
2022/01/30 12:56:30;;;;;;;9.05;6.55;;;;;;;;;;5071996;28;20504;-79
2022/01/30 12:59:06;;;;;;;7.82;6.30;;;;;;;;;;5073528;28;20021;-79
2022/01/30 13:01:33;;;;;;;10.60;7.97;;;;;;;;;;5071848;28;20078;-79
2022/01/30 13:04:03;;;;;;;8.85;7.00;;;;;;;;;;5070999;28;20031;-79
2022/01/30 13:06:34;;;;;;;9.70;7.65;;;;;;;;;;5052734;28;20025;-79
2022/01/30 13:09:00;;;;;;;7.78;6.78;;;;;;;;;;5070177;28;20031;-79
2022/01/30 13:11:27;;;;;;;8.13;6.60;;;;;;;;;;5070563;28;20024;-79
2022/01/30 13:13:57;;;;;;;7.43;5.60;;;;;;;;;;5073755;28;20505;-79
2022/01/30 13:16:28;;;;;;;8.52;6.07;;;;;;;;;;5071246;28;20024;-79
2022/01/30 13:18:54;;;;;;;;;;;;;;;;;;5069562;28;20031;-80
2022/01/30 13:21:22;;;;;;;6.88;5.65;;;;;;;;;;5070291;28;19926;-79
2022/01/30 13:23:48;;;;;;;6.15;5.00;;;;;;;;;;5070121;28;20034;-79
2022/01/30 13:26:31;;;;;;;7.53;5.93;;;;;;;;;;5071868;28;20024;-79
2022/01/30 13:28:57;;;;;;;8.40;6.65;;;;;;;;;;5069696;28;20048;-79
2022/01/30 13:31:24;;;;;;;6.45;5.28;;;;;;;;;;5071228;28;20027;-78
2022/01/30 13:34:07;;;;;;;7.28;5.50;;;;;;;;;;5070062;28;20027;-78
2022/01/30 13:36:34;;;;;;;9.02;7.22;;;;;;;;;;5070178;28;20020;-79
2022/01/30 13:39:05;;;;;;;7.32;5.97;;;;;;;;;;5067800;28;20441;-78
2022/01/30 13:41:36;;;;;;;8.75;6.22;;;;;;;;;;5070150;28;20521;-79
2022/01/30 13:44:10;;;;;;;7.63;6.00;;;;;;;;;;5072361;28;20505;-80
2022/01/30 13:46:59;;;;;;;9.63;7.13;;;;;;;;;;5071841;28;20077;-79
2022/01/30 13:49:26;;;;;;;9.55;7.03;;;;;;;;;;5072191;28;20394;-79
2022/01/30 13:52:06;;;;;;;12.48;7.18;;;;;;;;;;5069730;28;20025;-79
2022/01/30 13:54:32;;;;;;;10.90;7.13;;;;;;;;;;5069419;28;20021;-78
2022/01/30 13:57:06;;;;;;;10.65;6.65;;;;;;;;;;5069936;28;20023;-79
2022/01/30 13:59:33;;;;;;;8.77;5.30;;;;;;;;;;5069945;28;20017;-79
2022/01/30 14:02:02;;;;;;;8.15;5.93;;;;;;;;;;5072063;28;20491;-79
2022/01/30 14:04:29;;;;;;;8.18;6.05;;;;;;;;;;5072105;28;20129;-79
2022/01/30 14:06:59;;;;;;;5.80;4.85;;;;;;;;;;5069208;28;20020;-79
2022/01/30 14:09:36;;;;;;;9.43;5.43;;;;;;;;;;5069304;28;20029;-78
2022/01/30 14:12:07;;;;;;;6.05;4.88;;;;;;;;;;5069543;28;20021;-79
2022/01/30 14:14:37;;;;;;;5.95;5.00;;;;;;;;;;5070909;28;20024;-79
2022/01/30 14:17:04;;;;;;;5.65;4.50;;;;;;;;;;5071847;28;20030;-79
2022/01/30 14:19:48;;;;;;;5.63;4.63;;;;;;;;;;5070438;28;20035;-79
2022/01/30 14:22:25;;;;;;;6.28;4.70;;;;;;;;;;5068990;28;20023;-79
2022/01/30 14:24:54;;;;;;;5.95;4.72;;;;;;;;;;5069059;28;20028;-79
2022/01/30 14:27:22;;;;;;;6.90;5.53;;;;;;;;;;5069082;28;20023;-79
2022/01/30 14:29:55;;;;;;;6.93;5.32;;;;;;;;;;5069011;28;20042;-78
2022/01/30 14:32:22;;;;;;;9.70;6.75;;;;;;;;;;5053494;28;20394;-78
2022/01/30 14:34:52;;;;;;;7.38;5.50;;;;;;;;;;5072392;28;20026;-78
2022/01/30 14:37:21;;;;;;;6.45;5.03;;;;;;;;;;5050980;28;20043;-78
2022/01/30 14:39:54;;;;;;;5.63;4.75;;;;;;;;;;5068732;28;20035;-78
2022/01/30 14:42:20;;;;;;;5.15;4.57;;;;;;;;;;5068863;28;20035;-78
2022/01/30 14:44:47;;;;;;;5.32;4.82;;;;;;;;;;5068667;28;20033;-78
2022/01/30 14:47:13;;;;;;;5.70;4.30;;;;;;;;;;5052025;28;20029;-78
2022/01/30 14:49:41;;;;;;;5.57;4.97;;;;;;;;;;5069945;28;20425;-78
2022/01/30 14:52:08;;;;;;;5.22;4.70;;;;;;;;;;5067993;28;20021;-78
2022/01/30 14:54:35;;;;;;;5.38;4.78;;;;;;;;;;5069795;28;20034;-78
2022/01/30 14:57:03;;;;;;;4.90;4.32;;;;;;;;;;5068448;28;20033;-79
2022/01/30 14:59:30;;;;;;;5.80;4.82;;;;;;;;;;5068411;28;20023;-77
2022/01/30 15:01:57;;;;;;;5.25;4.57;;;;;;;;;;5071580;28;20046;-77
2022/01/30 15:04:23;;;;;;;5.07;4.55;;;;;;;;;;5069339;28;20036;-76
2022/01/30 15:06:50;;;;;;;6.00;5.30;;;;;;;;;;5067972;28;20028;-78
2022/01/30 15:09:16;;;;;;;10.45;7.35;;;;;;;;;;5068706;28;20039;-77
2022/01/30 15:11:43;;;;;;;7.90;5.95;;;;;;;;;;5068584;28;20021;-77
2022/01/30 15:14:10;;;;;;;7.40;5.35;;;;;;;;;;5070468;28;20021;-77
2022/01/30 15:19:07;;;;;;;6.47;5.20;;;;;;;;;;5068367;28;20505;-77
2022/01/30 15:21:34;;;;;;;9.45;6.05;;;;;;;;;;5068146;28;20028;-78
2022/01/30 15:24:00;;;;;;;9.88;6.70;;;;;;;;;;5068213;28;20497;-78
2022/01/30 15:26:27;;;;;;;9.73;6.13;;;;;;;;;;5068505;28;20031;-77
2022/01/30 15:28:53;;;;;;;8.75;5.78;;;;;;;;;;5053326;28;20094;-78
2022/01/30 15:31:19;;;;;;;7.22;5.43;;;;;;;;;;5070235;28;20033;-77
2022/01/30 15:33:46;;;;;;;10.40;7.10;;;;;;;;;;5069301;28;20099;-77